Time;durP1;ratioP1;P1;durP2;ratioP2;P2;SDS_P1;SDS_P2;PMS_P1;PMS_P2;Temp;Humidity;BMP_temperature;BMP_pressure;BME280_temperature;BME280_humidity;BME280_pressure;Samples;Min_cycle;Max_cycle;Signal;HPM_P1;HPM_P2
2021/04/12 00:00:40;;;;;;;0.10;0.10;;;;;;;1.89;98.66;92982.31;2116673;27;20055;-85
2021/04/12 00:01:52;;;;;;;0.10;0.10;;;;;;;1.87;99.23;92978.53;2099093;28;20054;-83
2021/04/12 00:03:24;;;;;;;0.10;0.10;;;;;;;1.74;99.27;92985.94;2108296;28;20740;-84
2021/04/12 00:04:47;;;;;;;0.10;0.10;;;;;;;1.74;100.00;92981.41;2090512;28;20052;-83
2021/04/12 00:06:01;;;;;;;0.10;0.10;;;;;;;1.81;98.93;92995.81;2097793;28;20727;-84
2021/04/12 00:07:09;;;;;;;0.10;0.10;;;;;;;1.72;97.79;92993.47;2099914;28;20027;-83
2021/04/12 00:08:21;;;;;;;0.20;0.20;;;;;;;1.57;99.04;92989.16;2105862;28;20104;-84
2021/04/12 00:10:00;;;;;;;0.20;0.17;;;;;;;1.50;100.00;92992.50;2101402;28;20028;-83
2021/04/12 00:11:26;;;;;;;0.10;0.10;;;;;;;1.74;100.00;92993.84;2086207;28;20406;-82
2021/04/12 00:12:34;;;;;;;0.20;0.20;;;;;;;1.68;100.00;92996.06;2109785;28;20081;-84
2021/04/12 00:13:56;;;;;;;0.20;0.20;;;;;;;1.58;99.33;92990.66;2108711;27;20016;-86
2021/04/12 00:15:14;;;;;;;0.10;0.10;;;;;;;1.50;100.00;93001.16;2108763;28;20072;-83
2021/04/12 00:16:20;;;;;;;0.10;0.10;;;;;;;1.34;98.08;93003.22;2094874;28;20032;-85
2021/04/12 00:17:43;;;;;;;0.10;0.10;;;;;;;1.38;99.39;92995.38;2115020;28;20375;-84
2021/04/12 00:18:52;;;;;;;0.10;0.10;;;;;;;1.25;98.86;93000.13;2109010;28;20114;-85
2021/04/12 00:19:58;;;;;;;0.15;0.10;;;;;;;1.05;98.44;93010.03;2106503;28;20449;-84
2021/04/12 00:21:03;;;;;;;0.10;0.10;;;;;;;0.99;99.00;93003.56;2098213;28;20031;-85
2021/04/12 00:22:28;;;;;;;0.10;0.10;;;;;;;1.03;99.83;93011.53;2098723;28;20059;-83
2021/04/12 00:23:38;;;;;;;0.10;0.10;;;;;;;1.08;100.00;93001.44;2108187;28;20800;-83
2021/04/12 00:24:48;;;;;;;0.10;0.10;;;;;;;1.10;100.00;93011.59;2108735;27;20438;-84
2021/04/12 00:26:00;;;;;;;0.08;0.08;;;;;;;1.01;99.31;93006.63;2116507;27;20088;-84
2021/04/12 00:27:13;;;;;;;0.10;0.10;;;;;;;1.06;99.79;93002.91;2107933;28;20020;-85
2021/04/12 00:28:20;;;;;;;0.10;0.10;;;;;;;1.07;100.00;93007.06;2111968;28;20746;-84
2021/04/12 00:29:29;;;;;;;0.10;0.10;;;;;;;1.00;100.00;93007.72;2097875;28;20524;-84
2021/04/12 00:30:38;;;;;;;0.10;0.10;;;;;;;1.03;100.00;93008.88;2092280;28;20079;-83
2021/04/12 00:31:50;;;;;;;0.10;0.10;;;;;;;0.97;99.53;93008.44;2090865;28;20029;-84
2021/04/12 00:33:11;;;;;;;0.05;0.05;;;;;;;0.92;99.80;93011.38;2090685;28;20823;-83
2021/04/12 00:34:25;;;;;;;0.00;0.00;;;;;;;0.88;99.51;93010.56;2108788;27;20433;-84
2021/04/12 00:35:36;;;;;;;0.10;0.10;;;;;;;0.84;99.33;93013.16;2099861;28;21002;-83
2021/04/12 00:36:43;;;;;;;0.17;0.17;;;;;;;0.88;99.46;93018.47;2103191;28;20528;-84
2021/04/12 00:37:50;;;;;;;0.10;0.10;;;;;;;0.92;99.44;93025.31;2106396;28;20031;-84
2021/04/12 00:39:10;;;;;;;0.10;0.10;;;;;;;0.85;99.41;93017.31;2102554;28;20446;-85
2021/04/12 00:40:50;;;;;;;0.20;0.20;;;;;;;0.78;99.77;93025.09;2100156;28;20530;-84
2021/04/12 00:41:59;;;;;;;0.20;0.20;;;;;;;0.81;99.84;93023.66;2108224;28;20466;-84
2021/04/12 00:43:12;;;;;;;0.10;0.10;;;;;;;0.74;99.93;93019.03;2100326;28;20568;-83
2021/04/12 00:44:28;;;;;;;0.10;0.10;;;;;;;0.65;99.24;93027.19;2097445;28;20032;-84
2021/04/12 00:45:56;;;;;;;0.10;0.10;;;;;;;0.65;99.63;93031.69;2089658;28;20470;-85
2021/04/12 00:47:44;;;;;;;0.10;0.10;;;;;;;0.67;99.63;93032.09;2092964;28;20443;-84
2021/04/12 00:49:03;;;;;;;0.10;0.10;;;;;;;0.75;100.00;93031.84;2084337;28;20470;-83
2021/04/12 00:50:33;;;;;;;0.10;0.10;;;;;;;0.68;99.81;93036.25;2073911;28;20461;-84
2021/04/12 00:51:52;;;;;;;0.20;0.20;;;;;;;0.75;100.00;93039.75;2093494;28;20437;-85
2021/04/12 00:53:11;;;;;;;0.10;0.10;;;;;;;0.72;100.00;93043.06;2085940;28;20163;-84
2021/04/12 00:54:30;;;;;;;0.10;0.10;;;;;;;0.65;100.00;93040.34;2102688;28;20036;-85
2021/04/12 00:55:42;;;;;;;0.10;0.10;;;;;;;0.65;100.00;93040.34;2102573;28;20462;-84
2021/04/12 00:56:54;;;;;;;0.10;0.10;;;;;;;0.60;100.00;93045.16;2109369;27;20540;-84
2021/04/12 00:58:15;;;;;;;0.10;0.10;;;;;;;0.53;100.00;93050.28;2107873;28;20540;-85
2021/04/12 00:59:24;;;;;;;0.10;0.10;;;;;;;0.55;100.00;93048.84;2103123;28;20021;-84
2021/04/12 01:00:29;;;;;;;0.10;0.10;;;;;;;0.56;99.45;93046.97;2083521;28;20440;-84
2021/04/12 01:01:47;;;;;;;0.17;0.17;;;;;;;0.50;99.96;93057.03;2082334;28;20444;-83
2021/04/12 01:03:16;;;;;;;0.10;0.10;;;;;;;0.57;99.54;93059.78;2100950;27;20708;-84
2021/04/12 01:04:25;;;;;;;0.10;0.10;;;;;;;0.48;97.82;93067.91;2093189;28;20496;-84
2021/04/12 01:05:34;;;;;;;0.10;0.10;;;;;;;0.53;98.92;93061.59;2091399;28;20689;-84
2021/04/12 01:06:56;;;;;;;0.20;0.20;;;;;;;0.44;100.00;93068.94;2098604;28;20846;-84
2021/04/12 01:08:18;;;;;;;0.10;0.10;;;;;;;0.34;99.25;93065.03;2087071;28;20028;-83
2021/04/12 01:09:25;;;;;;;0.38;0.10;;;;;;;0.38;99.78;93065.09;2086865;28;20439;-82
2021/04/12 01:10:51;;;;;;;0.10;0.10;;;;;;;0.41;100.00;93069.66;2090073;28;20447;-84
2021/04/12 01:12:40;;;;;;;0.10;0.10;;;;;;;0.43;100.00;93078.69;2092712;28;20435;-82
2021/04/12 01:14:16;;;;;;;0.10;0.10;;;;;;;0.38;99.81;93091.41;2094199;28;20489;-84
2021/04/12 01:15:19;;;;;;;0.10;0.10;;;;;;;0.48;100.00;93093.41;2091068;28;20553;-83
2021/04/12 01:16:43;;;;;;;0.10;0.10;;;;;;;0.43;99.21;93096.34;2081858;28;20447;-83
2021/04/12 01:18:30;;;;;;;0.10;0.10;;;;;;;0.31;100.00;93092.06;2095329;28;20452;-83
2021/04/12 01:19:43;;;;;;;0.10;0.10;;;;;;;0.41;100.00;93094.09;2072438;28;20553;-83
2021/04/12 01:21:13;;;;;;;0.00;0.00;;;;;;;0.27;100.00;93101.75;2063310;28;20473;-84
2021/04/12 01:22:34;;;;;;;0.10;0.10;;;;;;;0.37;100.00;93100.41;2097620;27;20453;-83
2021/04/12 01:23:59;;;;;;;0.05;0.05;;;;;;;0.39;100.00;93106.06;2108738;28;20057;-84
2021/04/12 01:25:09;;;;;;;0.10;0.10;;;;;;;0.38;100.00;93110.56;2107219;28;20465;-83
2021/04/12 01:26:09;;;;;;;0.10;0.10;;;;;;;0.37;100.00;93121.44;2099085;28;20443;-85
2021/04/12 01:27:40;;;;;;;0.10;0.10;;;;;;;0.36;98.47;93114.66;2089337;28;20102;-85
2021/04/12 01:29:19;;;;;;;0.10;0.10;;;;;;;0.36;99.15;93117.28;2094327;28;20521;-85
2021/04/12 01:30:47;;;;;;;0.10;0.10;;;;;;;0.30;99.67;93116.03;2085778;28;20439;-84
2021/04/12 01:32:04;;;;;;;0.10;0.10;;;;;;;0.32;98.62;93114.59;2104956;28;20437;-84
2021/04/12 01:33:39;;;;;;;0.10;0.10;;;;;;;0.26;99.54;93110.72;2102434;28;20435;-83
2021/04/12 01:35:08;;;;;;;0.10;0.10;;;;;;;0.20;100.00;93120.03;2090113;28;20446;-84
2021/04/12 01:36:40;;;;;;;0.10;0.10;;;;;;;0.14;100.00;93121.44;2089032;28;20443;-85
2021/04/12 01:37:54;;;;;;;0.10;0.10;;;;;;;0.25;100.00;93117.84;2097572;28;20035;-83
2021/04/12 01:39:18;;;;;;;0.10;0.10;;;;;;;0.26;100.00;93129.13;2090767;28;20436;-83
2021/04/12 01:40:26;;;;;;;0.10;0.10;;;;;;;0.26;100.00;93129.13;2101120;28;20394;-82
2021/04/12 01:41:43;;;;;;;0.10;0.10;;;;;;;0.15;100.00;93122.94;2105888;28;21162;-81
2021/04/12 01:42:54;;;;;;;0.10;0.10;;;;;;;0.15;100.00;93121.06;2097555;28;20525;-82
2021/04/12 01:43:57;;;;;;;1.00;0.17;;;;;;;0.05;100.00;93119.03;2098995;28;20761;-82
2021/04/12 01:45:15;;;;;;;0.10;0.10;;;;;;;0.10;100.00;93134.50;2105901;28;20566;-80
2021/04/12 01:46:44;;;;;;;0.10;0.10;;;;;;;0.09;100.00;93125.09;2093975;28;20440;-81
2021/04/12 01:47:59;;;;;;;0.10;0.10;;;;;;;0.09;100.00;93126.94;2106847;28;20450;-83
2021/04/12 01:49:19;;;;;;;0.10;0.10;;;;;;;0.14;100.00;93116.94;2109846;27;20447;-83
2021/04/12 01:50:40;;;;;;;0.10;0.10;;;;;;;0.04;100.00;93127.22;2108709;28;20434;-83
2021/04/12 01:52:18;;;;;;;0.10;0.10;;;;;;;0.02;100.00;93116.31;2106278;28;20027;-82
2021/04/12 01:54:09;;;;;;;0.10;0.10;;;;;;;0.02;100.00;93116.31;2097526;28;20447;-84
2021/04/12 01:55:39;;;;;;;0.10;0.10;;;;;;;0.05;100.00;93120.91;2057673;28;20776;-82
2021/04/12 01:56:42;;;;;;;;;;;;;;;0.09;100.00;93124.31;2101903;28;20442;-82
2021/04/12 01:58:01;;;;;;;0.20;0.20;;;;;;;0.09;100.00;93135.63;2100585;27;19946;-82
2021/04/12 01:59:16;;;;;;;0.08;0.08;;;;;;;0.09;100.00;93126.94;2120287;27;20452;-84
2021/04/12 02:00:31;;;;;;;0.10;0.10;;;;;;;0.16;100.00;93130.47;2108065;28;20442;-85
2021/04/12 02:02:09;;;;;;;0.10;0.10;;;;;;;0.18;100.00;93136.16;2101351;28;20439;-85
2021/04/12 02:04:38;;;;;;;0.10;0.10;;;;;;;0.17;100.00;93136.47;2141203;27;20186;-84
2021/04/12 02:06:01;;;;;;;0.10;0.10;;;;;;;0.15;100.00;93136.84;2130429;27;20737;-82
2021/04/12 02:07:13;;;;;;;0.10;0.10;;;;;;;0.18;100.00;93138.78;2123936;27;20909;-82
2021/04/12 02:08:34;;;;;;;0.10;0.10;;;;;;;0.12;100.00;93134.91;2114728;28;20830;-83
2021/04/12 02:09:43;;;;;;;0.10;0.10;;;;;;;0.09;100.00;93143.50;2110046;28;20954;-83
2021/04/12 02:11:08;;;;;;;0.10;0.10;;;;;;;0.05;100.00;93145.31;2122801;27;20497;-81
2021/04/12 02:12:23;;;;;;;0.10;0.10;;;;;;;0.25;100.00;93143.38;2121336;28;20457;-84
2021/04/12 02:13:57;;;;;;;0.20;0.20;;;;;;;0.14;100.00;93134.56;2123903;27;20924;-84
2021/04/12 02:15:06;;;;;;;0.10;0.10;;;;;;;0.25;100.00;93143.38;2129895;27;20471;-82
2021/04/12 02:16:17;;;;;;;0.10;0.10;;;;;;;0.16;100.00;93135.72;2113148;28;20449;-82
2021/04/12 02:17:35;;;;;;;0.10;0.10;;;;;;;0.20;100.00;93152.31;2098797;28;20143;-82
2021/04/12 02:19:05;;;;;;;0.10;0.10;;;;;;;0.23;100.00;93164.00;2101243;28;21242;-83
2021/04/12 02:20:18;;;;;;;0.10;0.10;;;;;;;0.29;100.00;93162.59;2105754;28;20452;-82
2021/04/12 02:21:47;;;;;;;0.10;0.10;;;;;;;0.23;100.00;93164.00;2114796;28;20031;-83
2021/04/12 02:23:09;;;;;;;0.10;0.10;;;;;;;0.27;100.00;93169.34;2089974;28;20439;-84
2021/04/12 02:24:27;;;;;;;0.20;0.20;;;;;;;0.19;100.00;93156.06;2118541;27;20023;-83
2021/04/12 02:25:51;;;;;;;0.10;0.10;;;;;;;0.25;100.00;93165.16;2115568;28;20541;-83
2021/04/12 02:27:04;;;;;;;0.10;0.10;;;;;;;0.22;100.00;93173.75;2119373;27;20429;-84
2021/04/12 02:28:13;;;;;;;0.10;0.10;;;;;;;0.15;99.41;93178.13;2123174;27;20778;-82
2021/04/12 02:29:25;;;;;;;0.20;0.20;;;;;;;0.17;100.00;93174.03;2114135;28;20438;-83
2021/04/12 02:30:34;;;;;;;0.10;0.10;;;;;;;0.27;100.00;93177.97;2114609;28;20430;-83
2021/04/12 02:31:37;;;;;;;0.10;0.10;;;;;;;0.36;100.00;93175.88;2114263;28;20422;-83
2021/04/12 02:33:00;;;;;;;0.10;0.10;;;;;;;0.16;98.96;93192.78;2114992;27;20882;-82
2021/04/12 02:34:28;;;;;;;0.10;0.10;;;;;;;0.14;98.85;93190.50;2112455;28;20461;-82
2021/04/12 02:35:34;;;;;;;0.15;0.15;;;;;;;0.18;100.00;93182.69;2116573;28;20475;-83
2021/04/12 02:36:35;;;;;;;0.10;0.10;;;;;;;0.21;99.77;93192.50;2106019;28;20472;-83
2021/04/12 02:37:41;;;;;;;0.10;0.10;;;;;;;0.25;100.00;93188.81;2121222;28;20445;-84
2021/04/12 02:39:03;;;;;;;0.10;0.10;;;;;;;0.22;100.00;93189.53;2113685;28;20031;-82
2021/04/12 02:40:28;;;;;;;0.10;0.10;;;;;;;0.21;100.00;93192.50;2118770;27;20442;-82
2021/04/12 02:42:12;;;;;;;0.10;0.10;;;;;;;-0.02;99.92;93198.47;2112928;28;20448;-82
2021/04/12 02:43:24;;;;;;;0.10;0.10;;;;;;;-0.08;99.35;93197.22;2068547;28;20449;-84
2021/04/12 02:44:49;;;;;;;0.10;0.10;;;;;;;-0.01;99.94;93196.59;2107468;28;20492;-82
2021/04/12 02:46:14;;;;;;;0.10;0.10;;;;;;;-0.03;99.92;93199.56;2111695;28;20449;-82
2021/04/12 02:47:38;;;;;;;0.10;0.10;;;;;;;-0.04;99.26;93195.44;2107681;28;20440;-83
2021/04/12 02:48:47;;;;;;;0.10;0.10;;;;;;;-0.09;98.39;93193.09;2110922;28;20460;-82
2021/04/12 02:50:26;;;;;;;0.10;0.10;;;;;;;-0.13;99.20;93196.72;2112769;28;20546;-82
2021/04/12 02:52:09;;;;;;;0.10;0.10;;;;;;;-0.09;99.83;93181.78;2091716;28;20488;-82
2021/04/12 02:53:27;;;;;;;0.10;0.10;;;;;;;-0.15;100.00;93191.06;2084908;28;20451;-82
2021/04/12 02:54:49;;;;;;;0.10;0.10;;;;;;;-0.14;100.00;93201.22;2121154;28;20791;-84
2021/04/12 02:56:15;;;;;;;0.10;0.10;;;;;;;-0.15;99.96;93209.47;2107158;28;20434;-82
2021/04/12 02:57:48;;;;;;;0.10;0.10;;;;;;;-0.16;100.00;93206.06;2110720;28;20425;-83
2021/04/12 02:59:07;;;;;;;0.10;0.10;;;;;;;-0.22;100.00;93206.69;2117187;28;20459;-82
2021/04/12 03:00:36;;;;;;;0.10;0.10;;;;;;;-0.14;99.96;93206.47;2098280;28;20447;-83
2021/04/12 03:01:36;;;;;;;0.10;0.10;;;;;;;-0.15;100.00;93201.59;2092865;28;20577;-83
2021/04/12 03:02:39;;;;;;;0.10;0.10;;;;;;;-0.14;99.84;93208.34;2104171;28;20450;-83
2021/04/12 03:04:13;;;;;;;0.10;0.10;;;;;;;-0.04;100.00;93210.44;2095998;28;20143;-82
2021/04/12 03:05:51;;;;;;;0.10;0.10;;;;;;;-0.13;100.00;93220.38;2105077;28;20441;-82
2021/04/12 03:07:04;;;;;;;0.10;0.10;;;;;;;-0.21;99.40;93216.09;2110924;28;20454;-82
2021/04/12 03:08:45;;;;;;;0.10;0.10;;;;;;;-0.24;99.69;93220.16;2107741;28;20457;-82
2021/04/12 03:10:10;;;;;;;0.10;0.10;;;;;;;-0.17;99.91;93217.69;2118111;28;20437;-82
2021/04/12 03:11:42;;;;;;;0.10;0.10;;;;;;;-0.08;100.00;93217.50;2107560;28;20433;-83
2021/04/12 03:12:45;;;;;;;0.10;0.10;;;;;;;-0.15;98.41;93217.34;2106385;28;20638;-82
2021/04/12 03:14:23;;;;;;;0.10;0.10;;;;;;;-0.13;99.05;93220.38;2112899;28;20533;-82
2021/04/12 03:15:42;;;;;;;0.10;0.10;;;;;;;-0.28;98.08;93225.34;2106457;28;20442;-83
2021/04/12 03:17:01;;;;;;;0.20;0.20;;;;;;;-0.27;98.96;93234.75;2109461;28;20462;-82
2021/04/12 03:18:15;;;;;;;0.10;0.10;;;;;;;-0.21;100.00;93240.50;2098688;28;20038;-82
2021/04/12 03:19:31;;;;;;;0.10;0.10;;;;;;;-0.33;99.38;93246.63;2092045;28;20505;-82
2021/04/12 03:20:34;;;;;;;0.10;0.10;;;;;;;-0.28;100.00;93240.34;2103244;27;20461;-82
2021/04/12 03:22:12;;;;;;;0.10;0.10;;;;;;;-0.35;99.83;93243.59;2107103;28;20457;-82
2021/04/12 03:23:30;;;;;;;0.10;0.10;;;;;;;-0.23;100.00;93239.31;2103600;28;20454;-82
2021/04/12 03:25:09;;;;;;;0.10;0.10;;;;;;;-0.26;100.00;93235.53;2103376;28;20874;-83
2021/04/12 03:26:33;;;;;;;0.20;0.20;;;;;;;-0.45;99.35;93244.13;2103513;28;20446;-82
2021/04/12 03:27:50;;;;;;;0.30;0.30;;;;;;;-0.42;99.75;93250.56;2088190;28;20442;-82
2021/04/12 03:28:55;;;;;;;0.10;0.10;;;;;;;-0.45;100.00;93240.72;2094244;28;20914;-82
2021/04/12 03:30:01;;;;;;;0.20;0.20;;;;;;;-0.46;100.00;93247.09;2106726;28;20989;-82
2021/04/12 03:31:01;;;;;;;0.20;0.20;;;;;;;-0.50;98.69;93247.00;2099050;28;20535;-83
2021/04/12 03:32:11;;;;;;;0.10;0.10;;;;;;;-0.46;100.00;93253.09;2089930;28;21238;-82
2021/04/12 03:33:11;;;;;;;0.20;0.20;;;;;;;-0.51;100.00;93251.50;2107007;27;20028;-83
2021/04/12 03:34:22;;;;;;;0.20;0.20;;;;;;;-0.51;100.00;93251.50;2106775;28;20031;-83
2021/04/12 03:35:42;;;;;;;0.10;0.10;;;;;;;-0.47;100.00;93250.81;2092811;28;20688;-82
2021/04/12 03:37:03;;;;;;;0.10;0.10;;;;;;;-0.38;100.00;93254.03;2095427;28;20439;-82
2021/04/12 03:38:33;;;;;;;0.10;0.10;;;;;;;-0.33;100.00;93259.00;2101106;28;20522;-82
2021/04/12 03:39:50;;;;;;;0.10;0.10;;;;;;;-0.41;100.00;93257.31;2110703;28;21209;-83
2021/04/12 03:41:25;;;;;;;0.17;0.17;;;;;;;-0.36;100.00;93259.69;2106704;28;20868;-82
2021/04/12 03:42:51;;;;;;;0.10;0.10;;;;;;;-0.40;100.00;93256.97;2086081;28;20443;-82
2021/04/12 03:44:10;;;;;;;0.25;0.20;;;;;;;-0.38;100.00;93261.91;2098026;28;20471;-83
2021/04/12 03:45:31;;;;;;;0.20;0.20;;;;;;;-0.43;100.00;93254.28;2090854;28;20463;-82
2021/04/12 03:47:02;;;;;;;0.20;0.20;;;;;;;-0.39;100.00;93263.78;2092676;28;20450;-81
2021/04/12 03:48:08;;;;;;;0.13;0.13;;;;;;;-0.23;100.00;93263.72;2102631;28;20435;-80
2021/04/12 03:49:20;;;;;;;0.10;0.10;;;;;;;-0.22;100.00;93267.09;2106530;28;20492;-82
2021/04/12 03:50:31;;;;;;;0.10;0.10;;;;;;;-0.33;99.76;93259.75;2099757;28;20427;-82
2021/04/12 03:51:43;;;;;;;0.10;0.10;;;;;;;-0.35;99.12;93258.56;2099536;28;20958;-81
2021/04/12 03:53:24;;;;;;;0.20;0.20;;;;;;;-0.29;99.97;93262.47;2106301;28;20545;-83
2021/04/12 03:54:41;;;;;;;0.10;0.10;;;;;;;-0.34;98.89;93265.38;2095444;28;20534;-82
2021/04/12 03:56:00;;;;;;;0.15;0.15;;;;;;;-0.36;98.91;93265.69;2085959;28;20979;-83
2021/04/12 03:57:20;;;;;;;0.10;0.10;;;;;;;-0.41;99.77;93268.59;2086534;28;20456;-83
2021/04/12 03:58:39;;;;;;;;;;;;;;;-0.47;99.09;93266.56;2093182;28;20470;-82
2021/04/12 04:00:04;;;;;;;0.10;0.10;;;;;;;-0.37;99.68;93272.06;2096656;28;19952;-81
2021/04/12 04:01:30;;;;;;;0.10;0.10;;;;;;;-0.37;100.00;93279.16;2101362;28;20446;-82
2021/04/12 04:02:40;;;;;;;0.17;0.17;;;;;;;-0.33;100.00;93274.75;2098389;28;21117;-83
2021/04/12 04:04:11;;;;;;;0.20;0.20;;;;;;;-0.33;99.12;93280.75;2099507;28;20817;-82
2021/04/12 04:05:11;;;;;;;;;;;;;;;-0.49;99.51;93281.91;2067854;28;20810;-82
2021/04/12 04:06:22;;;;;;;0.20;0.20;;;;;;;-0.59;99.29;93276.06;2098303;28;19915;-82
2021/04/12 04:07:23;;;;;;;0.20;0.20;;;;;;;-0.54;100.00;93278.44;2106575;28;20032;-83
2021/04/12 04:08:59;;;;;;;0.10;0.10;;;;;;;-0.46;100.00;93273.34;2106535;28;20954;-82
2021/04/12 04:10:14;;;;;;;0.10;0.10;;;;;;;-0.48;100.00;93278.16;2103251;28;20028;-83
2021/04/12 04:11:51;;;;;;;0.10;0.10;;;;;;;-0.36;100.00;93280.69;2093753;28;20451;-82
2021/04/12 04:13:38;;;;;;;0.10;0.10;;;;;;;-0.36;100.00;93289.31;2099621;28;20450;-82
2021/04/12 04:14:53;;;;;;;0.20;0.20;;;;;;;-0.40;100.00;93290.34;2104885;28;20490;-82
2021/04/12 04:16:07;;;;;;;0.10;0.10;;;;;;;-0.40;99.93;93293.72;2101963;28;20454;-83
2021/04/12 04:17:13;;;;;;;0.20;0.20;;;;;;;-0.45;98.60;93285.38;2101537;28;20455;-84
2021/04/12 04:18:24;;;;;;;0.20;0.20;;;;;;;-0.29;99.74;93294.75;2107139;28;20970;-82
2021/04/12 04:20:02;;;;;;;;;;;;;;;-0.41;99.31;93291.47;2108277;28;20441;-83
2021/04/12 04:21:16;;;;;;;0.10;0.10;;;;;;;-0.43;99.32;93296.31;2086267;28;19908;-82
2021/04/12 04:22:54;;;;;;;0.10;0.10;;;;;;;-0.44;100.00;93297.38;2074588;28;20538;-82
2021/04/12 04:24:13;;;;;;;0.10;0.10;;;;;;;-0.42;100.00;93303.06;2082725;28;20468;-82
2021/04/12 04:25:24;;;;;;;0.10;0.10;;;;;;;-0.47;99.44;93298.09;2067503;28;20465;-82
2021/04/12 04:26:51;;;;;;;0.10;0.10;;;;;;;-0.46;100.00;93299.59;2072398;28;20457;-83
2021/04/12 04:28:09;;;;;;;0.20;0.20;;;;;;;-0.52;99.75;93307.75;2106146;28;20422;-83
2021/04/12 04:29:40;;;;;;;0.20;0.10;;;;;;;-0.47;100.00;93306.72;2097854;28;20442;-81
2021/04/12 04:30:46;;;;;;;0.10;0.10;;;;;;;-0.54;97.84;93312.56;2103553;28;20421;-82
2021/04/12 04:32:04;;;;;;;0.10;0.10;;;;;;;-0.56;99.86;93308.75;2090345;28;20447;-81
2021/04/12 04:33:17;;;;;;;0.60;0.20;;;;;;;-0.49;100.00;93319.41;2094427;28;20455;-82
2021/04/12 04:34:32;;;;;;;0.10;0.10;;;;;;;-0.47;100.00;93319.09;2097927;28;20443;-82
2021/04/12 04:36:10;;;;;;;0.10;0.10;;;;;;;-0.49;98.83;93319.41;2105242;28;20505;-82
2021/04/12 04:37:26;;;;;;;0.57;0.20;;;;;;;-0.46;98.59;93326.63;2114343;28;21000;-82
2021/04/12 04:39:05;;;;;;;0.10;0.10;;;;;;;-0.58;97.46;93324.84;2099963;28;20442;-82
2021/04/12 04:40:24;;;;;;;1.02;0.32;;;;;;;-0.45;97.90;93324.75;2100456;28;20862;-83
2021/04/12 04:42:01;;;;;;;0.20;0.10;;;;;;;-0.39;97.70;93336.53;2100250;28;21017;-82
2021/04/12 04:43:16;;;;;;;0.15;0.15;;;;;;;-0.54;98.06;93336.19;2102938;28;20529;-83
2021/04/12 04:44:34;;;;;;;0.10;0.10;;;;;;;-0.48;99.05;93334.09;2094239;28;20971;-82
2021/04/12 04:45:56;;;;;;;0.10;0.10;;;;;;;-0.42;99.59;93334.56;2108681;28;20446;-82
2021/04/12 04:47:22;;;;;;;0.10;0.10;;;;;;;-0.51;99.91;93343.38;2108733;28;20449;-82
2021/04/12 04:49:05;;;;;;;0.10;0.10;;;;;;;-0.47;99.97;93337.47;2078116;28;20452;-82
2021/04/12 04:50:36;;;;;;;0.10;0.10;;;;;;;-0.46;100.00;93344.22;2072771;28;20986;-83
2021/04/12 04:52:12;;;;;;;0.20;0.20;;;;;;;-0.58;99.54;93353.72;2077002;28;20424;-82
2021/04/12 04:53:33;;;;;;;0.10;0.10;;;;;;;-0.67;99.26;93349.75;2078433;28;20810;-83
2021/04/12 04:54:42;;;;;;;0.20;0.20;;;;;;;-0.53;98.52;93356.09;2092315;28;20445;-82
2021/04/12 04:56:24;;;;;;;0.10;0.10;;;;;;;-0.57;97.90;93357.88;2094347;28;20451;-82
2021/04/12 04:57:53;;;;;;;0.20;0.20;;;;;;;-0.43;99.49;93364.56;2094263;28;20438;-81
2021/04/12 04:59:21;;;;;;;0.13;0.13;;;;;;;-0.52;100.00;93362.13;2097101;28;20849;-81
2021/04/12 05:00:35;;;;;;;0.15;0.15;;;;;;;-0.44;100.00;93357.78;2088549;28;20535;-82
2021/04/12 05:02:13;;;;;;;0.10;0.10;;;;;;;-0.48;99.25;93364.81;2093163;28;20443;-82
2021/04/12 05:03:19;;;;;;;0.10;0.10;;;;;;;-0.58;98.75;93363.44;2094524;28;20460;-82
2021/04/12 05:04:48;;;;;;;0.20;0.20;;;;;;;-0.49;99.94;93363.28;2082512;28;20472;-82
2021/04/12 05:06:04;;;;;;;0.10;0.10;;;;;;;-0.56;99.57;93369.91;2094799;28;20454;-82
2021/04/12 05:07:43;;;;;;;0.10;0.10;;;;;;;-0.45;100.00;93370.13;2090954;28;20458;-82
2021/04/12 05:09:17;;;;;;;0.10;0.10;;;;;;;-0.38;100.00;93372.19;2104599;28;20449;-82
2021/04/12 05:10:52;;;;;;;0.20;0.20;;;;;;;-0.39;99.17;93386.41;2106023;28;20406;-83
2021/04/12 05:12:29;;;;;;;1.58;0.20;;;;;;;-0.47;97.62;93384.72;2093936;28;20492;-82
2021/04/12 05:14:10;;;;;;;0.65;0.30;;;;;;;-0.43;99.81;93378.47;2090805;28;21069;-82
2021/04/12 05:15:16;;;;;;;0.20;0.20;;;;;;;-0.39;99.39;93387.19;2103087;28;20450;-81
2021/04/12 05:16:23;;;;;;;0.20;0.20;;;;;;;-0.39;99.01;93391.69;2091032;28;20485;-81
2021/04/12 05:17:33;;;;;;;0.20;0.20;;;;;;;-0.45;97.29;93398.25;2098376;28;20466;-81
2021/04/12 05:18:55;;;;;;;1.67;1.58;;;;;;;-0.49;95.86;93400.81;2100054;28;20953;-82
2021/04/12 05:20:31;;;;;;;0.50;0.50;;;;;;;-0.44;97.23;93399.78;2100222;28;20656;-82
2021/04/12 05:21:59;;;;;;;0.30;0.30;;;;;;;-0.35;99.85;93403.78;2110383;28;20501;-81
2021/04/12 05:23:17;;;;;;;0.57;0.40;;;;;;;-0.26;99.93;93408.88;2105804;28;20496;-82
2021/04/12 05:24:32;;;;;;;0.40;0.40;;;;;;;-0.25;99.91;93413.00;2101699;28;20469;-81
2021/04/12 05:25:48;;;;;;;0.60;0.60;;;;;;;-0.39;97.72;93416.06;2115732;27;20802;-81
2021/04/12 05:27:19;;;;;;;0.40;0.40;;;;;;;-0.35;96.78;93416.91;2102455;28;20457;-82
2021/04/12 05:28:44;;;;;;;0.60;0.60;;;;;;;-0.39;96.47;93417.94;2110202;28;20762;-82
2021/04/12 05:30:16;;;;;;;0.70;0.70;;;;;;;-0.38;97.28;93420.22;2110444;28;20512;-81
2021/04/12 05:31:41;;;;;;;1.98;1.85;;;;;;;-0.29;96.90;93430.56;2092649;28;20560;-82
2021/04/12 05:33:05;;;;;;;0.40;0.40;;;;;;;-0.47;97.61;93442.50;2105027;28;20506;-82
2021/04/12 05:34:46;;;;;;;0.82;0.82;;;;;;;-0.54;96.50;93440.44;2100652;28;21004;-81
2021/04/12 05:36:04;;;;;;;0.30;0.30;;;;;;;-0.51;98.35;93447.66;2097017;28;20457;-82
2021/04/12 05:37:17;;;;;;;0.40;0.40;;;;;;;-0.45;97.90;93450.78;2093396;28;20455;-81
2021/04/12 05:38:30;;;;;;;0.30;0.30;;;;;;;-0.43;97.45;93451.97;2093405;28;20523;-82
2021/04/12 05:39:42;;;;;;;0.70;0.70;;;;;;;-0.45;97.45;93454.16;2097427;28;20450;-83
2021/04/12 05:41:13;;;;;;;0.40;0.40;;;;;;;-0.52;97.89;93457.38;2100494;28;20537;-83
2021/04/12 05:42:29;;;;;;;1.50;1.40;;;;;;;-0.54;97.48;93459.56;2101488;28;20484;-82
2021/04/12 05:43:38;;;;;;;0.40;0.40;;;;;;;-0.45;97.10;93458.66;2093962;28;20484;-83
2021/04/12 05:45:13;;;;;;;0.40;0.40;;;;;;;-0.36;98.68;93470.50;2090128;28;20462;-82
2021/04/12 05:46:13;;;;;;;0.25;0.25;;;;;;;-0.45;96.88;93469.91;2110534;28;20429;-83
2021/04/12 05:47:52;;;;;;;0.20;0.20;;;;;;;-0.46;95.30;93473.66;2101342;28;20537;-83
2021/04/12 05:49:11;;;;;;;0.60;0.60;;;;;;;-0.49;96.67;93474.31;2112623;28;20669;-82
2021/04/12 05:50:24;;;;;;;0.30;0.30;;;;;;;-0.41;97.65;93470.78;2114271;28;20425;-82
2021/04/12 05:51:41;;;;;;;0.25;0.25;;;;;;;-0.36;98.14;93475.78;2105633;28;20511;-81
2021/04/12 05:52:58;;;;;;;0.65;0.20;;;;;;;-0.43;95.28;93480.88;2097403;28;20545;-83
2021/04/12 05:54:05;;;;;;;0.20;0.20;;;;;;;-0.27;96.78;93480.88;2104199;28;20532;-83
2021/04/12 05:55:11;;;;;;;0.32;0.32;;;;;;;-0.24;96.07;93482.81;2098466;28;20502;-83
2021/04/12 05:56:33;;;;;;;0.30;0.30;;;;;;;-0.36;96.43;93488.13;2097988;28;20446;-82
2021/04/12 05:58:07;;;;;;;0.25;0.25;;;;;;;-0.18;96.54;93483.31;2091698;28;20455;-81
2021/04/12 05:59:23;;;;;;;0.35;0.20;;;;;;;-0.42;97.14;93492.13;2093997;28;20530;-83
2021/04/12 06:00:26;;;;;;;0.30;0.30;;;;;;;-0.35;97.25;93493.06;2097332;28;21168;-83
2021/04/12 06:01:32;;;;;;;1.52;1.52;;;;;;;-0.46;95.77;93493.91;2089814;28;20450;-82
2021/04/12 06:02:55;;;;;;;3.45;3.25;;;;;;;-0.53;97.33;93500.50;2097347;28;21037;-82
2021/04/12 06:04:10;;;;;;;1.63;1.55;;;;;;;-0.40;98.47;93500.41;2097495;28;20461;-82
2021/04/12 06:06:07;;;;;;;0.80;0.80;;;;;;;-0.43;96.23;93501.09;2099609;28;20437;-82
2021/04/12 06:07:16;;;;;;;0.30;0.30;;;;;;;-0.29;94.98;93498.84;2106906;28;20792;-82
2021/04/12 06:08:47;;;;;;;0.20;0.20;;;;;;;-0.28;96.24;93501.13;2103551;28;20977;-82
2021/04/12 06:10:07;;;;;;;0.60;0.60;;;;;;;-0.40;96.33;93503.81;2109622;28;20485;-82
2021/04/12 06:11:32;;;;;;;0.20;0.20;;;;;;;-0.39;97.55;93502.72;2074204;28;20519;-82
2021/04/12 06:12:48;;;;;;;0.30;0.30;;;;;;;-0.37;97.28;93505.75;2107553;28;20449;-82
2021/04/12 06:14:21;;;;;;;0.30;0.30;;;;;;;-0.32;97.87;93510.00;2095930;28;20989;-82
2021/04/12 06:15:39;;;;;;;0.20;0.20;;;;;;;-0.34;97.13;93517.47;2099033;28;20513;-82
2021/04/12 06:16:58;;;;;;;0.40;0.40;;;;;;;-0.39;97.02;93510.59;2105210;28;20453;-82
2021/04/12 06:18:18;;;;;;;0.20;0.20;;;;;;;-0.36;96.77;93509.16;2099394;28;21339;-82
2021/04/12 06:19:30;;;;;;;0.20;0.20;;;;;;;-0.40;94.77;93522.19;2099409;28;20432;-83